sensor_id;sensor_type;location;lat;lon;timestamp;P1;durP1;ratioP1;P2;durP2;ratioP2
11996;SDS011;6058;48.704;9.474;2023-06-10T00:01:27;7.37;;;4.77;;
11996;SDS011;6058;48.704;9.474;2023-06-10T00:03:55;6.70;;;4.87;;
11996;SDS011;6058;48.704;9.474;2023-06-10T00:06:22;5.40;;;4.73;;
11996;SDS011;6058;48.704;9.474;2023-06-10T00:08:50;5.20;;;4.60;;
11996;SDS011;6058;48.704;9.474;2023-06-10T00:11:18;5.77;;;5.27;;
11996;SDS011;6058;48.704;9.474;2023-06-10T00:13:46;4.20;;;3.90;;
11996;SDS011;6058;48.704;9.474;2023-06-10T00:16:13;5.00;;;4.43;;
11996;SDS011;6058;48.704;9.474;2023-06-10T00:18:42;5.43;;;4.27;;
11996;SDS011;6058;48.704;9.474;2023-06-10T00:21:09;5.60;;;4.90;;
11996;SDS011;6058;48.704;9.474;2023-06-10T00:23:38;5.90;;;5.30;;
11996;SDS011;6058;48.704;9.474;2023-06-10T00:26:07;5.07;;;4.67;;
11996;SDS011;6058;48.704;9.474;2023-06-10T00:28:34;5.90;;;4.30;;
11996;SDS011;6058;48.704;9.474;2023-06-10T00:31:01;4.90;;;4.50;;
11996;SDS011;6058;48.704;9.474;2023-06-10T00:33:29;5.20;;;4.67;;
11996;SDS011;6058;48.704;9.474;2023-06-10T00:35:56;4.87;;;4.40;;
11996;SDS011;6058;48.704;9.474;2023-06-10T00:38:23;6.13;;;4.77;;
11996;SDS011;6058;48.704;9.474;2023-06-10T00:40:50;7.00;;;5.30;;
11996;SDS011;6058;48.704;9.474;2023-06-10T00:43:19;5.20;;;4.80;;
11996;SDS011;6058;48.704;9.474;2023-06-10T00:45:46;6.07;;;4.70;;
11996;SDS011;6058;48.704;9.474;2023-06-10T00:48:13;5.37;;;4.87;;
11996;SDS011;6058;48.704;9.474;2023-06-10T00:50:40;5.33;;;4.70;;
11996;SDS011;6058;48.704;9.474;2023-06-10T00:53:07;5.17;;;4.73;;
11996;SDS011;6058;48.704;9.474;2023-06-10T00:55:35;5.17;;;4.77;;
11996;SDS011;6058;48.704;9.474;2023-06-10T00:58:02;4.70;;;4.30;;
11996;SDS011;6058;48.704;9.474;2023-06-10T01:00:31;5.57;;;5.07;;
11996;SDS011;6058;48.704;9.474;2023-06-10T01:02:58;5.33;;;4.83;;
11996;SDS011;6058;48.704;9.474;2023-06-10T01:05:25;5.40;;;4.90;;
11996;SDS011;6058;48.704;9.474;2023-06-10T01:08:02;5.17;;;4.67;;
11996;SDS011;6058;48.704;9.474;2023-06-10T01:10:32;8.27;;;4.83;;
11996;SDS011;6058;48.704;9.474;2023-06-10T01:13:01;6.80;;;4.67;;
11996;SDS011;6058;48.704;9.474;2023-06-10T01:15:29;4.47;;;4.13;;
11996;SDS011;6058;48.704;9.474;2023-06-10T01:17:58;6.13;;;5.53;;
11996;SDS011;6058;48.704;9.474;2023-06-10T01:20:27;5.37;;;4.87;;
11996;SDS011;6058;48.704;9.474;2023-06-10T01:22:56;6.07;;;5.03;;
11996;SDS011;6058;48.704;9.474;2023-06-10T01:25:23;5.27;;;4.60;;
11996;SDS011;6058;48.704;9.474;2023-06-10T01:27:54;5.60;;;5.10;;
11996;SDS011;6058;48.704;9.474;2023-06-10T01:30:22;5.77;;;4.90;;
11996;SDS011;6058;48.704;9.474;2023-06-10T01:32:54;5.53;;;5.00;;
11996;SDS011;6058;48.704;9.474;2023-06-10T01:35:22;6.00;;;5.00;;
11996;SDS011;6058;48.704;9.474;2023-06-10T01:37:51;5.20;;;4.63;;
11996;SDS011;6058;48.704;9.474;2023-06-10T01:40:21;4.90;;;4.40;;
11996;SDS011;6058;48.704;9.474;2023-06-10T01:42:50;5.93;;;5.10;;
11996;SDS011;6058;48.704;9.474;2023-06-10T01:45:18;4.73;;;4.30;;
11996;SDS011;6058;48.704;9.474;2023-06-10T01:47:45;6.73;;;5.40;;
11996;SDS011;6058;48.704;9.474;2023-06-10T01:50:12;6.33;;;5.20;;
11996;SDS011;6058;48.704;9.474;2023-06-10T01:52:39;6.17;;;5.07;;
11996;SDS011;6058;48.704;9.474;2023-06-10T01:55:06;5.60;;;5.17;;
11996;SDS011;6058;48.704;9.474;2023-06-10T01:57:35;5.30;;;4.70;;
11996;SDS011;6058;48.704;9.474;2023-06-10T02:00:02;5.10;;;4.70;;
11996;SDS011;6058;48.704;9.474;2023-06-10T02:02:29;5.43;;;4.90;;
11996;SDS011;6058;48.704;9.474;2023-06-10T02:04:56;5.33;;;4.90;;
11996;SDS011;6058;48.704;9.474;2023-06-10T02:07:23;4.87;;;4.47;;
11996;SDS011;6058;48.704;9.474;2023-06-10T02:09:50;6.60;;;4.63;;
11996;SDS011;6058;48.704;9.474;2023-06-10T02:12:17;5.70;;;5.10;;
11996;SDS011;6058;48.704;9.474;2023-06-10T02:14:45;5.70;;;4.27;;
11996;SDS011;6058;48.704;9.474;2023-06-10T02:17:13;5.30;;;4.90;;
11996;SDS011;6058;48.704;9.474;2023-06-10T02:19:40;5.27;;;4.70;;
11996;SDS011;6058;48.704;9.474;2023-06-10T02:22:08;5.83;;;4.50;;
11996;SDS011;6058;48.704;9.474;2023-06-10T02:24:35;4.70;;;4.30;;
11996;SDS011;6058;48.704;9.474;2023-06-10T02:27:03;5.23;;;4.73;;
11996;SDS011;6058;48.704;9.474;2023-06-10T02:29:32;5.30;;;4.73;;
11996;SDS011;6058;48.704;9.474;2023-06-10T02:32:00;7.23;;;5.13;;
11996;SDS011;6058;48.704;9.474;2023-06-10T02:34:27;5.90;;;5.10;;
11996;SDS011;6058;48.704;9.474;2023-06-10T02:36:54;6.50;;;5.13;;
11996;SDS011;6058;48.704;9.474;2023-06-10T02:39:22;5.03;;;4.53;;
11996;SDS011;6058;48.704;9.474;2023-06-10T02:41:49;5.10;;;4.60;;
11996;SDS011;6058;48.704;9.474;2023-06-10T02:44:17;5.57;;;4.57;;
11996;SDS011;6058;48.704;9.474;2023-06-10T02:46:45;4.97;;;4.40;;
11996;SDS011;6058;48.704;9.474;2023-06-10T02:49:14;5.00;;;4.60;;
11996;SDS011;6058;48.704;9.474;2023-06-10T02:51:41;5.57;;;5.07;;
11996;SDS011;6058;48.704;9.474;2023-06-10T02:54:08;4.70;;;4.33;;
11996;SDS011;6058;48.704;9.474;2023-06-10T02:56:35;4.87;;;4.47;;
11996;SDS011;6058;48.704;9.474;2023-06-10T02:59:06;6.03;;;4.57;;
11996;SDS011;6058;48.704;9.474;2023-06-10T03:01:33;5.20;;;4.70;;
11996;SDS011;6058;48.704;9.474;2023-06-10T03:04:02;7.40;;;4.70;;
11996;SDS011;6058;48.704;9.474;2023-06-10T03:06:30;5.43;;;4.93;;
11996;SDS011;6058;48.704;9.474;2023-06-10T03:08:59;5.27;;;4.60;;
11996;SDS011;6058;48.704;9.474;2023-06-10T03:11:32;6.00;;;4.87;;
11996;SDS011;6058;48.704;9.474;2023-06-10T03:13:59;4.80;;;4.37;;
11996;SDS011;6058;48.704;9.474;2023-06-10T03:16:26;4.93;;;4.43;;
11996;SDS011;6058;48.704;9.474;2023-06-10T03:18:55;7.37;;;4.60;;
11996;SDS011;6058;48.704;9.474;2023-06-10T03:21:22;5.00;;;4.50;;
11996;SDS011;6058;48.704;9.474;2023-06-10T03:23:51;5.23;;;4.83;;
11996;SDS011;6058;48.704;9.474;2023-06-10T03:26:18;5.10;;;4.27;;
11996;SDS011;6058;48.704;9.474;2023-06-10T03:28:47;4.80;;;4.40;;
11996;SDS011;6058;48.704;9.474;2023-06-10T03:31:14;4.87;;;4.43;;
11996;SDS011;6058;48.704;9.474;2023-06-10T03:33:42;4.97;;;4.50;;
11996;SDS011;6058;48.704;9.474;2023-06-10T03:36:09;5.33;;;4.83;;
11996;SDS011;6058;48.704;9.474;2023-06-10T03:38:37;5.27;;;4.60;;
11996;SDS011;6058;48.704;9.474;2023-06-10T03:41:05;4.90;;;4.50;;
11996;SDS011;6058;48.704;9.474;2023-06-10T03:43:32;5.03;;;4.47;;
11996;SDS011;6058;48.704;9.474;2023-06-10T03:45:59;5.23;;;4.77;;
11996;SDS011;6058;48.704;9.474;2023-06-10T03:48:26;4.67;;;4.27;;
11996;SDS011;6058;48.704;9.474;2023-06-10T03:50:53;5.07;;;4.53;;
11996;SDS011;6058;48.704;9.474;2023-06-10T03:53:20;4.60;;;4.20;;
11996;SDS011;6058;48.704;9.474;2023-06-10T03:55:47;4.93;;;4.53;;
11996;SDS011;6058;48.704;9.474;2023-06-10T03:58:16;5.20;;;4.70;;
11996;SDS011;6058;48.704;9.474;2023-06-10T04:00:43;4.90;;;4.40;;
11996;SDS011;6058;48.704;9.474;2023-06-10T04:03:10;4.90;;;4.50;;
11996;SDS011;6058;48.704;9.474;2023-06-10T04:05:39;5.20;;;4.60;;
11996;SDS011;6058;48.704;9.474;2023-06-10T04:08:07;6.87;;;5.30;;
11996;SDS011;6058;48.704;9.474;2023-06-10T04:10:34;5.53;;;4.60;;
11996;SDS011;6058;48.704;9.474;2023-06-10T04:13:01;6.47;;;4.97;;
11996;SDS011;6058;48.704;9.474;2023-06-10T04:15:30;5.20;;;4.10;;
11996;SDS011;6058;48.704;9.474;2023-06-10T04:17:58;5.50;;;5.00;;
11996;SDS011;6058;48.704;9.474;2023-06-10T04:20:26;5.40;;;5.00;;
11996;SDS011;6058;48.704;9.474;2023-06-10T04:22:53;4.63;;;4.23;;
11996;SDS011;6058;48.704;9.474;2023-06-10T04:25:20;4.63;;;4.23;;
11996;SDS011;6058;48.704;9.474;2023-06-10T04:27:48;5.10;;;4.60;;
11996;SDS011;6058;48.704;9.474;2023-06-10T04:30:15;5.33;;;4.63;;
11996;SDS011;6058;48.704;9.474;2023-06-10T04:32:43;4.83;;;4.33;;
11996;SDS011;6058;48.704;9.474;2023-06-10T04:35:11;6.63;;;4.87;;
11996;SDS011;6058;48.704;9.474;2023-06-10T04:37:39;5.07;;;4.57;;
11996;SDS011;6058;48.704;9.474;2023-06-10T04:40:06;5.07;;;4.60;;
11996;SDS011;6058;48.704;9.474;2023-06-10T04:42:33;6.83;;;5.10;;
11996;SDS011;6058;48.704;9.474;2023-06-10T04:45:01;5.53;;;4.73;;
11996;SDS011;6058;48.704;9.474;2023-06-10T04:47:28;4.80;;;4.30;;
11996;SDS011;6058;48.704;9.474;2023-06-10T04:49:59;5.80;;;4.60;;
11996;SDS011;6058;48.704;9.474;2023-06-10T04:52:26;4.53;;;4.13;;
11996;SDS011;6058;48.704;9.474;2023-06-10T04:54:53;4.60;;;4.20;;
11996;SDS011;6058;48.704;9.474;2023-06-10T04:57:20;4.90;;;4.50;;
11996;SDS011;6058;48.704;9.474;2023-06-10T04:59:48;5.17;;;4.67;;
11996;SDS011;6058;48.704;9.474;2023-06-10T05:02:15;4.83;;;4.30;;
11996;SDS011;6058;48.704;9.474;2023-06-10T05:04:42;5.60;;;5.10;;
11996;SDS011;6058;48.704;9.474;2023-06-10T05:07:10;5.97;;;4.97;;
11996;SDS011;6058;48.704;9.474;2023-06-10T05:09:37;7.30;;;4.47;;
11996;SDS011;6058;48.704;9.474;2023-06-10T05:12:05;5.70;;;5.10;;
11996;SDS011;6058;48.704;9.474;2023-06-10T05:14:32;5.10;;;4.70;;
11996;SDS011;6058;48.704;9.474;2023-06-10T05:16:59;4.73;;;4.33;;
11996;SDS011;6058;48.704;9.474;2023-06-10T05:19:26;5.77;;;4.23;;
11996;SDS011;6058;48.704;9.474;2023-06-10T05:21:53;7.33;;;4.97;;
11996;SDS011;6058;48.704;9.474;2023-06-10T05:24:22;6.57;;;4.67;;
11996;SDS011;6058;48.704;9.474;2023-06-10T05:26:49;5.83;;;5.23;;
11996;SDS011;6058;48.704;9.474;2023-06-10T05:29:16;5.33;;;4.83;;
11996;SDS011;6058;48.704;9.474;2023-06-10T05:31:43;5.53;;;4.97;;
11996;SDS011;6058;48.704;9.474;2023-06-10T05:34:10;5.23;;;4.53;;
11996;SDS011;6058;48.704;9.474;2023-06-10T05:36:37;4.73;;;4.33;;
11996;SDS011;6058;48.704;9.474;2023-06-10T05:39:04;4.93;;;4.30;;
11996;SDS011;6058;48.704;9.474;2023-06-10T05:41:32;6.03;;;4.43;;
11996;SDS011;6058;48.704;9.474;2023-06-10T05:43:59;4.90;;;4.40;;
11996;SDS011;6058;48.704;9.474;2023-06-10T05:46:26;4.53;;;4.13;;
11996;SDS011;6058;48.704;9.474;2023-06-10T05:48:54;4.73;;;4.20;;
11996;SDS011;6058;48.704;9.474;2023-06-10T05:51:24;5.07;;;4.20;;
11996;SDS011;6058;48.704;9.474;2023-06-10T05:53:53;5.93;;;4.05;;
11996;SDS011;6058;48.704;9.474;2023-06-10T05:56:20;4.88;;;4.47;;
11996;SDS011;6058;48.704;9.474;2023-06-10T05:58:49;6.65;;;4.40;;
11996;SDS011;6058;48.704;9.474;2023-06-10T06:01:16;4.45;;;4.05;;
11996;SDS011;6058;48.704;9.474;2023-06-10T06:03:43;4.93;;;4.43;;
11996;SDS011;6058;48.704;9.474;2023-06-10T06:06:11;3.97;;;3.67;;
11996;SDS011;6058;48.704;9.474;2023-06-10T06:08:39;4.38;;;3.97;;
11996;SDS011;6058;48.704;9.474;2023-06-10T06:11:06;3.85;;;3.55;;
11996;SDS011;6058;48.704;9.474;2023-06-10T06:13:33;4.22;;;3.75;;
11996;SDS011;6058;48.704;9.474;2023-06-10T06:16:02;4.50;;;4.10;;
11996;SDS011;6058;48.704;9.474;2023-06-10T06:18:33;4.25;;;3.85;;
11996;SDS011;6058;48.704;9.474;2023-06-10T06:21:00;4.25;;;3.85;;
11996;SDS011;6058;48.704;9.474;2023-06-10T06:23:28;4.30;;;3.95;;
11996;SDS011;6058;48.704;9.474;2023-06-10T06:25:55;4.10;;;3.65;;
11996;SDS011;6058;48.704;9.474;2023-06-10T06:28:22;4.40;;;4.10;;
11996;SDS011;6058;48.704;9.474;2023-06-10T06:30:54;4.40;;;4.00;;
11996;SDS011;6058;48.704;9.474;2023-06-10T06:33:22;4.10;;;3.70;;
11996;SDS011;6058;48.704;9.474;2023-06-10T06:35:51;5.03;;;4.57;;
11996;SDS011;6058;48.704;9.474;2023-06-10T06:38:18;4.05;;;3.75;;
11996;SDS011;6058;48.704;9.474;2023-06-10T06:40:45;3.80;;;3.50;;
11996;SDS011;6058;48.704;9.474;2023-06-10T06:43:12;4.05;;;3.70;;
11996;SDS011;6058;48.704;9.474;2023-06-10T06:45:39;4.22;;;3.83;;
11996;SDS011;6058;48.704;9.474;2023-06-10T06:48:06;5.03;;;4.53;;
11996;SDS011;6058;48.704;9.474;2023-06-10T06:50:35;3.97;;;3.67;;
11996;SDS011;6058;48.704;9.474;2023-06-10T06:53:02;4.40;;;4.00;;
11996;SDS011;6058;48.704;9.474;2023-06-10T06:55:29;3.90;;;3.60;;
11996;SDS011;6058;48.704;9.474;2023-06-10T06:57:56;4.70;;;3.97;;
11996;SDS011;6058;48.704;9.474;2023-06-10T07:00:23;5.28;;;3.78;;
11996;SDS011;6058;48.704;9.474;2023-06-10T07:02:50;4.53;;;3.60;;
11996;SDS011;6058;48.704;9.474;2023-06-10T07:05:17;6.43;;;3.38;;
11996;SDS011;6058;48.704;9.474;2023-06-10T07:07:46;3.83;;;3.53;;
11996;SDS011;6058;48.704;9.474;2023-06-10T07:10:13;5.32;;;3.38;;
11996;SDS011;6058;48.704;9.474;2023-06-10T07:12:40;3.72;;;3.42;;
11996;SDS011;6058;48.704;9.474;2023-06-10T07:15:08;6.55;;;4.15;;
11996;SDS011;6058;48.704;9.474;2023-06-10T07:17:35;4.43;;;3.38;;
11996;SDS011;6058;48.704;9.474;2023-06-10T07:20:03;3.85;;;3.50;;
11996;SDS011;6058;48.704;9.474;2023-06-10T07:22:30;3.70;;;3.40;;
11996;SDS011;6058;48.704;9.474;2023-06-10T07:24:58;3.80;;;3.50;;
11996;SDS011;6058;48.704;9.474;2023-06-10T07:27:26;4.90;;;3.45;;
11996;SDS011;6058;48.704;9.474;2023-06-10T07:29:53;6.35;;;3.10;;
11996;SDS011;6058;48.704;9.474;2023-06-10T07:32:20;5.57;;;3.53;;
11996;SDS011;6058;48.704;9.474;2023-06-10T07:34:48;4.38;;;3.88;;
11996;SDS011;6058;48.704;9.474;2023-06-10T07:37:15;4.63;;;3.80;;
11996;SDS011;6058;48.704;9.474;2023-06-10T07:39:44;4.28;;;3.70;;
11996;SDS011;6058;48.704;9.474;2023-06-10T07:42:13;4.53;;;3.92;;
11996;SDS011;6058;48.704;9.474;2023-06-10T07:44:40;3.55;;;3.25;;
11996;SDS011;6058;48.704;9.474;2023-06-10T07:47:07;3.90;;;3.50;;
11996;SDS011;6058;48.704;9.474;2023-06-10T07:49:34;4.00;;;3.47;;
11996;SDS011;6058;48.704;9.474;2023-06-10T07:52:14;4.30;;;3.90;;
11996;SDS011;6058;48.704;9.474;2023-06-10T07:54:41;3.65;;;3.35;;
11996;SDS011;6058;48.704;9.474;2023-06-10T07:57:09;4.05;;;3.67;;
11996;SDS011;6058;48.704;9.474;2023-06-10T07:59:37;4.50;;;4.03;;
11996;SDS011;6058;48.704;9.474;2023-06-10T08:02:04;3.88;;;3.58;;
11996;SDS011;6058;48.704;9.474;2023-06-10T08:04:31;4.55;;;3.47;;
11996;SDS011;6058;48.704;9.474;2023-06-10T08:07:04;3.83;;;3.53;;
11996;SDS011;6058;48.704;9.474;2023-06-10T08:09:31;3.70;;;3.40;;
11996;SDS011;6058;48.704;9.474;2023-06-10T08:11:59;3.85;;;3.42;;
11996;SDS011;6058;48.704;9.474;2023-06-10T08:14:26;3.75;;;3.45;;
11996;SDS011;6058;48.704;9.474;2023-06-10T08:16:54;4.10;;;3.72;;
11996;SDS011;6058;48.704;9.474;2023-06-10T08:19:21;3.42;;;3.13;;
11996;SDS011;6058;48.704;9.474;2023-06-10T08:21:49;3.97;;;3.30;;
11996;SDS011;6058;48.704;9.474;2023-06-10T08:24:16;3.85;;;3.55;;
11996;SDS011;6058;48.704;9.474;2023-06-10T08:26:43;4.00;;;3.42;;
11996;SDS011;6058;48.704;9.474;2023-06-10T08:29:11;3.40;;;3.20;;
11996;SDS011;6058;48.704;9.474;2023-06-10T08:31:40;4.25;;;3.85;;
11996;SDS011;6058;48.704;9.474;2023-06-10T08:34:09;3.97;;;3.30;;
11996;SDS011;6058;48.704;9.474;2023-06-10T08:36:36;4.00;;;3.42;;
11996;SDS011;6058;48.704;9.474;2023-06-10T08:39:04;3.47;;;3.15;;
11996;SDS011;6058;48.704;9.474;2023-06-10T08:41:32;4.00;;;3.60;;
11996;SDS011;6058;48.704;9.474;2023-06-10T08:44:03;3.53;;;3.22;;
11996;SDS011;6058;48.704;9.474;2023-06-10T08:46:43;3.38;;;3.10;;
11996;SDS011;6058;48.704;9.474;2023-06-10T08:49:14;3.75;;;3.45;;
11996;SDS011;6058;48.704;9.474;2023-06-10T08:51:55;4.70;;;3.45;;
11996;SDS011;6058;48.704;9.474;2023-06-10T08:54:22;3.65;;;3.35;;
11996;SDS011;6058;48.704;9.474;2023-06-10T08:56:51;3.40;;;3.10;;
11996;SDS011;6058;48.704;9.474;2023-06-10T08:59:20;3.72;;;3.42;;
11996;SDS011;6058;48.704;9.474;2023-06-10T09:01:47;3.72;;;3.38;;
11996;SDS011;6058;48.704;9.474;2023-06-10T09:04:16;3.92;;;3.58;;
11996;SDS011;6058;48.704;9.474;2023-06-10T09:06:44;2.88;;;2.67;;
11996;SDS011;6058;48.704;9.474;2023-06-10T09:09:11;3.50;;;3.20;;
11996;SDS011;6058;48.704;9.474;2023-06-10T09:11:39;3.53;;;3.00;;
11996;SDS011;6058;48.704;9.474;2023-06-10T09:14:06;4.00;;;3.53;;
11996;SDS011;6058;48.704;9.474;2023-06-10T09:16:34;3.67;;;3.47;;
11996;SDS011;6058;48.704;9.474;2023-06-10T09:19:02;3.47;;;3.05;;
11996;SDS011;6058;48.704;9.474;2023-06-10T09:21:34;3.50;;;3.20;;
11996;SDS011;6058;48.704;9.474;2023-06-10T09:24:02;3.88;;;3.10;;
11996;SDS011;6058;48.704;9.474;2023-06-10T09:26:29;3.70;;;3.40;;
11996;SDS011;6058;48.704;9.474;2023-06-10T09:28:57;3.40;;;3.10;;
11996;SDS011;6058;48.704;9.474;2023-06-10T09:31:24;3.40;;;3.20;;
11996;SDS011;6058;48.704;9.474;2023-06-10T09:34:09;4.22;;;3.05;;
11996;SDS011;6058;48.704;9.474;2023-06-10T09:36:38;3.70;;;3.40;;
11996;SDS011;6058;48.704;9.474;2023-06-10T09:39:13;3.95;;;3.50;;
11996;SDS011;6058;48.704;9.474;2023-06-10T09:41:41;3.63;;;3.33;;
11996;SDS011;6058;48.704;9.474;2023-06-10T09:44:09;4.35;;;3.17;;
11996;SDS011;6058;48.704;9.474;2023-06-10T09:46:38;3.97;;;3.28;;
11996;SDS011;6058;48.704;9.474;2023-06-10T09:49:05;3.47;;;3.28;;
11996;SDS011;6058;48.704;9.474;2023-06-10T09:51:32;3.13;;;2.92;;
11996;SDS011;6058;48.704;9.474;2023-06-10T09:54:01;3.85;;;3.10;;
11996;SDS011;6058;48.704;9.474;2023-06-10T09:56:32;3.67;;;3.38;;
11996;SDS011;6058;48.704;9.474;2023-06-10T09:59:00;2.92;;;2.72;;
11996;SDS011;6058;48.704;9.474;2023-06-10T10:01:27;3.65;;;3.35;;
11996;SDS011;6058;48.704;9.474;2023-06-10T10:03:54;3.22;;;3.00;;
11996;SDS011;6058;48.704;9.474;2023-06-10T10:06:21;3.80;;;3.13;;
11996;SDS011;6058;48.704;9.474;2023-06-10T10:08:49;3.85;;;3.00;;
11996;SDS011;6058;48.704;9.474;2023-06-10T10:11:18;3.55;;;3.20;;
11996;SDS011;6058;48.704;9.474;2023-06-10T10:13:48;3.28;;;3.08;;
11996;SDS011;6058;48.704;9.474;2023-06-10T10:16:16;3.15;;;2.95;;
11996;SDS011;6058;48.704;9.474;2023-06-10T10:18:45;3.38;;;3.17;;
11996;SDS011;6058;48.704;9.474;2023-06-10T10:21:13;3.70;;;3.25;;
11996;SDS011;6058;48.704;9.474;2023-06-10T10:23:44;3.28;;;3.00;;
11996;SDS011;6058;48.704;9.474;2023-06-10T10:26:12;3.10;;;2.90;;
11996;SDS011;6058;48.704;9.474;2023-06-10T10:28:45;3.90;;;3.60;;
11996;SDS011;6058;48.704;9.474;2023-06-10T10:31:13;3.25;;;2.90;;
11996;SDS011;6058;48.704;9.474;2023-06-10T10:33:42;2.95;;;2.75;;
11996;SDS011;6058;48.704;9.474;2023-06-10T10:36:12;3.00;;;2.80;;
11996;SDS011;6058;48.704;9.474;2023-06-10T10:38:40;2.75;;;2.55;;
11996;SDS011;6058;48.704;9.474;2023-06-10T10:41:08;2.95;;;2.75;;
11996;SDS011;6058;48.704;9.474;2023-06-10T10:43:35;6.93;;;2.70;;
11996;SDS011;6058;48.704;9.474;2023-06-10T10:46:08;2.90;;;2.70;;
11996;SDS011;6058;48.704;9.474;2023-06-10T10:48:37;2.70;;;2.50;;
11996;SDS011;6058;48.704;9.474;2023-06-10T10:51:04;3.08;;;2.88;;
11996;SDS011;6058;48.704;9.474;2023-06-10T10:53:31;3.25;;;3.00;;
11996;SDS011;6058;48.704;9.474;2023-06-10T10:55:59;7.43;;;3.05;;
11996;SDS011;6058;48.704;9.474;2023-06-10T10:58:26;4.25;;;2.88;;
11996;SDS011;6058;48.704;9.474;2023-06-10T11:00:53;3.00;;;2.80;;
11996;SDS011;6058;48.704;9.474;2023-06-10T11:03:22;2.80;;;2.60;;
11996;SDS011;6058;48.704;9.474;2023-06-10T11:05:49;3.20;;;2.90;;
11996;SDS011;6058;48.704;9.474;2023-06-10T11:11:17;2.78;;;2.58;;
11996;SDS011;6058;48.704;9.474;2023-06-10T11:13:57;2.92;;;2.72;;
11996;SDS011;6058;48.704;9.474;2023-06-10T11:16:28;2.90;;;2.70;;
11996;SDS011;6058;48.704;9.474;2023-06-10T11:18:56;2.92;;;2.72;;
11996;SDS011;6058;48.704;9.474;2023-06-10T11:21:24;3.30;;;3.08;;
11996;SDS011;6058;48.704;9.474;2023-06-10T11:23:51;4.45;;;3.03;;
11996;SDS011;6058;48.704;9.474;2023-06-10T11:26:19;3.22;;;3.03;;
11996;SDS011;6058;48.704;9.474;2023-06-10T11:31:33;3.22;;;2.95;;
11996;SDS011;6058;48.704;9.474;2023-06-10T11:34:02;3.08;;;2.88;;
11996;SDS011;6058;48.704;9.474;2023-06-10T11:36:30;4.30;;;2.90;;
11996;SDS011;6058;48.704;9.474;2023-06-10T11:38:58;3.25;;;3.05;;
11996;SDS011;6058;48.704;9.474;2023-06-10T11:41:26;3.60;;;3.33;;
11996;SDS011;6058;48.704;9.474;2023-06-10T11:43:54;4.40;;;2.80;;
11996;SDS011;6058;48.704;9.474;2023-06-10T11:46:22;3.40;;;3.10;;
11996;SDS011;6058;48.704;9.474;2023-06-10T11:48:52;3.45;;;3.25;;
11996;SDS011;6058;48.704;9.474;2023-06-10T11:51:22;2.58;;;2.47;;
11996;SDS011;6058;48.704;9.474;2023-06-10T11:53:49;2.88;;;2.67;;
11996;SDS011;6058;48.704;9.474;2023-06-10T11:56:19;2.80;;;2.60;;
11996;SDS011;6058;48.704;9.474;2023-06-10T11:58:49;3.00;;;2.80;;
11996;SDS011;6058;48.704;9.474;2023-06-10T12:01:19;2.58;;;2.47;;
11996;SDS011;6058;48.704;9.474;2023-06-10T12:03:48;3.03;;;2.83;;
11996;SDS011;6058;48.704;9.474;2023-06-10T12:06:24;3.15;;;2.95;;
11996;SDS011;6058;48.704;9.474;2023-06-10T12:08:51;2.65;;;2.45;;
11996;SDS011;6058;48.704;9.474;2023-06-10T12:11:18;2.92;;;2.72;;
11996;SDS011;6058;48.704;9.474;2023-06-10T12:13:47;3.05;;;2.80;;
11996;SDS011;6058;48.704;9.474;2023-06-10T12:16:14;2.78;;;2.58;;
11996;SDS011;6058;48.704;9.474;2023-06-10T12:18:43;3.75;;;2.33;;
11996;SDS011;6058;48.704;9.474;2023-06-10T12:21:17;3.72;;;2.38;;
11996;SDS011;6058;48.704;9.474;2023-06-10T12:24:02;2.40;;;2.30;;
11996;SDS011;6058;48.704;9.474;2023-06-10T12:26:34;2.78;;;2.58;;
11996;SDS011;6058;48.704;9.474;2023-06-10T12:29:01;2.60;;;2.40;;
11996;SDS011;6058;48.704;9.474;2023-06-10T12:31:28;2.83;;;2.42;;
11996;SDS011;6058;48.704;9.474;2023-06-10T12:34:07;3.08;;;2.80;;
11996;SDS011;6058;48.704;9.474;2023-06-10T12:36:34;3.42;;;3.13;;
11996;SDS011;6058;48.704;9.474;2023-06-10T12:39:03;2.60;;;2.40;;
11996;SDS011;6058;48.704;9.474;2023-06-10T12:41:31;2.67;;;2.47;;
11996;SDS011;6058;48.704;9.474;2023-06-10T12:43:59;2.80;;;2.60;;
11996;SDS011;6058;48.704;9.474;2023-06-10T12:46:35;3.22;;;2.92;;
11996;SDS011;6058;48.704;9.474;2023-06-10T12:49:02;2.65;;;2.45;;
11996;SDS011;6058;48.704;9.474;2023-06-10T12:51:29;2.42;;;2.22;;
11996;SDS011;6058;48.704;9.474;2023-06-10T12:53:56;2.25;;;2.15;;
11996;SDS011;6058;48.704;9.474;2023-06-10T12:56:25;2.33;;;2.20;;
11996;SDS011;6058;48.704;9.474;2023-06-10T12:58:52;7.57;;;2.35;;
11996;SDS011;6058;48.704;9.474;2023-06-10T13:01:19;2.55;;;2.35;;
11996;SDS011;6058;48.704;9.474;2023-06-10T13:03:46;2.60;;;2.40;;
11996;SDS011;6058;48.704;9.474;2023-06-10T13:06:13;2.58;;;2.40;;
11996;SDS011;6058;48.704;9.474;2023-06-10T13:08:41;2.80;;;2.60;;
11996;SDS011;6058;48.704;9.474;2023-06-10T13:11:08;2.72;;;2.53;;
11996;SDS011;6058;48.704;9.474;2023-06-10T13:13:37;2.70;;;2.50;;
11996;SDS011;6058;48.704;9.474;2023-06-10T13:16:05;2.92;;;2.72;;
11996;SDS011;6058;48.704;9.474;2023-06-10T13:18:32;3.28;;;2.97;;
11996;SDS011;6058;48.704;9.474;2023-06-10T13:21:02;3.38;;;2.85;;
11996;SDS011;6058;48.704;9.474;2023-06-10T13:23:29;3.67;;;2.78;;
11996;SDS011;6058;48.704;9.474;2023-06-10T13:25:57;3.00;;;2.80;;
11996;SDS011;6058;48.704;9.474;2023-06-10T13:28:25;2.92;;;2.72;;
11996;SDS011;6058;48.704;9.474;2023-06-10T13:30:53;4.88;;;3.47;;
11996;SDS011;6058;48.704;9.474;2023-06-10T13:35:57;5.13;;;2.92;;
11996;SDS011;6058;48.704;9.474;2023-06-10T13:38:24;2.92;;;2.72;;
11996;SDS011;6058;48.704;9.474;2023-06-10T13:40:54;2.78;;;2.58;;
11996;SDS011;6058;48.704;9.474;2023-06-10T13:43:21;3.33;;;3.08;;
11996;SDS011;6058;48.704;9.474;2023-06-10T13:45:48;3.22;;;2.88;;
11996;SDS011;6058;48.704;9.474;2023-06-10T13:48:16;2.70;;;2.47;;
11996;SDS011;6058;48.704;9.474;2023-06-10T13:50:45;2.70;;;2.50;;
11996;SDS011;6058;48.704;9.474;2023-06-10T13:53:12;3.10;;;2.90;;
11996;SDS011;6058;48.704;9.474;2023-06-10T13:55:39;3.25;;;3.00;;
11996;SDS011;6058;48.704;9.474;2023-06-10T13:58:06;3.10;;;2.80;;
11996;SDS011;6058;48.704;9.474;2023-06-10T14:00:34;3.00;;;2.80;;
11996;SDS011;6058;48.704;9.474;2023-06-10T14:03:01;2.97;;;2.78;;
11996;SDS011;6058;48.704;9.474;2023-06-10T14:05:30;3.10;;;2.90;;
11996;SDS011;6058;48.704;9.474;2023-06-10T14:07:58;2.92;;;2.72;;
11996;SDS011;6058;48.704;9.474;2023-06-10T14:10:25;2.60;;;2.40;;
11996;SDS011;6058;48.704;9.474;2023-06-10T14:12:52;2.67;;;2.50;;
11996;SDS011;6058;48.704;9.474;2023-06-10T14:15:19;3.95;;;2.72;;
11996;SDS011;6058;48.704;9.474;2023-06-10T14:17:47;2.67;;;2.47;;
11996;SDS011;6058;48.704;9.474;2023-06-10T14:20:14;4.13;;;2.72;;
11996;SDS011;6058;48.704;9.474;2023-06-10T14:22:42;4.35;;;2.60;;
11996;SDS011;6058;48.704;9.474;2023-06-10T14:25:09;3.17;;;2.97;;
11996;SDS011;6058;48.704;9.474;2023-06-10T14:27:37;3.03;;;2.80;;
11996;SDS011;6058;48.704;9.474;2023-06-10T14:30:04;2.78;;;2.58;;
11996;SDS011;6058;48.704;9.474;2023-06-10T14:32:32;2.70;;;2.50;;
11996;SDS011;6058;48.704;9.474;2023-06-10T14:34:59;3.08;;;2.88;;
11996;SDS011;6058;48.704;9.474;2023-06-10T14:37:26;3.00;;;2.80;;
11996;SDS011;6058;48.704;9.474;2023-06-10T14:39:55;3.00;;;2.80;;
11996;SDS011;6058;48.704;9.474;2023-06-10T14:42:22;2.63;;;2.53;;
11996;SDS011;6058;48.704;9.474;2023-06-10T14:44:49;2.80;;;2.60;;
11996;SDS011;6058;48.704;9.474;2023-06-10T14:47:16;3.05;;;2.75;;
11996;SDS011;6058;48.704;9.474;2023-06-10T14:49:43;3.33;;;2.92;;
11996;SDS011;6058;48.704;9.474;2023-06-10T14:52:10;2.90;;;2.70;;
11996;SDS011;6058;48.704;9.474;2023-06-10T14:54:37;2.80;;;2.55;;
11996;SDS011;6058;48.704;9.474;2023-06-10T14:57:06;2.40;;;2.22;;
11996;SDS011;6058;48.704;9.474;2023-06-10T14:59:33;2.70;;;2.50;;
11996;SDS011;6058;48.704;9.474;2023-06-10T15:02:01;3.22;;;3.03;;
11996;SDS011;6058;48.704;9.474;2023-06-10T15:04:28;2.70;;;2.50;;
11996;SDS011;6058;48.704;9.474;2023-06-10T15:06:55;2.67;;;2.47;;
11996;SDS011;6058;48.704;9.474;2023-06-10T15:09:22;2.45;;;2.25;;
11996;SDS011;6058;48.704;9.474;2023-06-10T15:11:49;2.40;;;2.30;;
11996;SDS011;6058;48.704;9.474;2023-06-10T15:14:17;2.22;;;2.10;;